sensor_id;sensor_type;location;lat;lon;timestamp;temperature;humidity
23721;DHT22;42950;52.134;5.578;2023-06-19T00:01:45;22.40;99.90
23721;DHT22;42950;52.134;5.578;2023-06-19T00:04:11;22.40;99.90
23721;DHT22;42950;52.134;5.578;2023-06-19T00:06:37;22.40;99.90
23721;DHT22;42950;52.134;5.578;2023-06-19T00:09:03;22.40;99.90
23721;DHT22;42950;52.134;5.578;2023-06-19T00:11:29;22.50;99.90
23721;DHT22;42950;52.134;5.578;2023-06-19T00:13:55;22.40;99.90
23721;DHT22;42950;52.134;5.578;2023-06-19T00:16:21;22.50;99.90
23721;DHT22;42950;52.134;5.578;2023-06-19T00:18:47;22.50;99.90
23721;DHT22;42950;52.134;5.578;2023-06-19T00:21:13;22.50;99.90
23721;DHT22;42950;52.134;5.578;2023-06-19T00:23:39;22.50;99.90
23721;DHT22;42950;52.134;5.578;2023-06-19T00:26:05;22.60;99.90
23721;DHT22;42950;52.134;5.578;2023-06-19T00:28:32;22.50;99.90
23721;DHT22;42950;52.134;5.578;2023-06-19T00:30:58;22.50;99.90
23721;DHT22;42950;52.134;5.578;2023-06-19T00:33:24;22.60;99.90
23721;DHT22;42950;52.134;5.578;2023-06-19T00:35:50;22.60;99.90
23721;DHT22;42950;52.134;5.578;2023-06-19T00:38:16;22.60;99.90
23721;DHT22;42950;52.134;5.578;2023-06-19T00:40:42;22.60;99.90
23721;DHT22;42950;52.134;5.578;2023-06-19T00:43:08;22.60;99.90
23721;DHT22;42950;52.134;5.578;2023-06-19T00:45:33;22.60;99.90
23721;DHT22;42950;52.134;5.578;2023-06-19T00:48:00;22.60;99.90
23721;DHT22;42950;52.134;5.578;2023-06-19T00:50:28;22.50;99.90
23721;DHT22;42950;52.134;5.578;2023-06-19T00:52:55;22.50;99.90
23721;DHT22;42950;52.134;5.578;2023-06-19T00:55:21;22.40;99.90
23721;DHT22;42950;52.134;5.578;2023-06-19T00:57:48;22.40;99.90
23721;DHT22;42950;52.134;5.578;2023-06-19T01:00:16;22.30;99.90
23721;DHT22;42950;52.134;5.578;2023-06-19T01:02:41;22.30;99.90
23721;DHT22;42950;52.134;5.578;2023-06-19T01:05:07;22.20;99.90
23721;DHT22;42950;52.134;5.578;2023-06-19T01:10:24;22.20;99.90
23721;DHT22;42950;52.134;5.578;2023-06-19T01:13:05;22.10;99.90
23721;DHT22;42950;52.134;5.578;2023-06-19T01:15:32;22.00;99.90
23721;DHT22;42950;52.134;5.578;2023-06-19T01:17:59;21.90;99.90
23721;DHT22;42950;52.134;5.578;2023-06-19T01:20:26;21.90;99.90
23721;DHT22;42950;52.134;5.578;2023-06-19T01:22:52;21.80;99.90
23721;DHT22;42950;52.134;5.578;2023-06-19T01:25:23;21.80;99.90
23721;DHT22;42950;52.134;5.578;2023-06-19T01:27:49;21.70;99.90
23721;DHT22;42950;52.134;5.578;2023-06-19T01:30:16;21.70;99.90
23721;DHT22;42950;52.134;5.578;2023-06-19T01:35:28;21.70;99.90
23721;DHT22;42950;52.134;5.578;2023-06-19T01:37:55;21.60;99.90
23721;DHT22;42950;52.134;5.578;2023-06-19T01:40:22;21.60;99.90
23721;DHT22;42950;52.134;5.578;2023-06-19T01:42:52;21.60;99.90
23721;DHT22;42950;52.134;5.578;2023-06-19T01:45:18;21.50;99.90
23721;DHT22;42950;52.134;5.578;2023-06-19T01:47:44;21.50;99.90
23721;DHT22;42950;52.134;5.578;2023-06-19T01:50:11;21.40;99.90
23721;DHT22;42950;52.134;5.578;2023-06-19T01:52:38;21.40;99.90
23721;DHT22;42950;52.134;5.578;2023-06-19T01:55:05;21.40;99.90
23721;DHT22;42950;52.134;5.578;2023-06-19T01:57:31;21.40;99.90
23721;DHT22;42950;52.134;5.578;2023-06-19T01:59:57;21.30;99.90
23721;DHT22;42950;52.134;5.578;2023-06-19T02:02:23;21.20;99.90
23721;DHT22;42950;52.134;5.578;2023-06-19T02:04:49;21.20;99.90
23721;DHT22;42950;52.134;5.578;2023-06-19T02:07:15;21.10;99.90
23721;DHT22;42950;52.134;5.578;2023-06-19T02:09:41;21.10;99.90
23721;DHT22;42950;52.134;5.578;2023-06-19T02:12:07;21.00;99.90
23721;DHT22;42950;52.134;5.578;2023-06-19T02:14:34;21.00;99.90
23721;DHT22;42950;52.134;5.578;2023-06-19T02:17:00;21.00;99.90
23721;DHT22;42950;52.134;5.578;2023-06-19T02:19:26;21.00;99.90
23721;DHT22;42950;52.134;5.578;2023-06-19T02:21:52;20.90;99.90
23721;DHT22;42950;52.134;5.578;2023-06-19T02:24:19;20.90;99.90
23721;DHT22;42950;52.134;5.578;2023-06-19T02:26:45;20.90;99.90
23721;DHT22;42950;52.134;5.578;2023-06-19T02:29:11;20.80;99.90
23721;DHT22;42950;52.134;5.578;2023-06-19T02:31:37;20.80;99.90
23721;DHT22;42950;52.134;5.578;2023-06-19T02:34:02;20.70;99.90
23721;DHT22;42950;52.134;5.578;2023-06-19T02:36:29;20.60;99.90
23721;DHT22;42950;52.134;5.578;2023-06-19T02:38:55;20.60;99.90
23721;DHT22;42950;52.134;5.578;2023-06-19T02:41:21;20.60;99.90
23721;DHT22;42950;52.134;5.578;2023-06-19T02:43:46;20.60;99.90
23721;DHT22;42950;52.134;5.578;2023-06-19T02:46:12;20.60;99.90
23721;DHT22;42950;52.134;5.578;2023-06-19T02:48:39;20.70;99.90
23721;DHT22;42950;52.134;5.578;2023-06-19T02:51:04;20.60;99.90
23721;DHT22;42950;52.134;5.578;2023-06-19T02:53:30;20.70;99.90
23721;DHT22;42950;52.134;5.578;2023-06-19T02:55:56;20.70;99.90
23721;DHT22;42950;52.134;5.578;2023-06-19T02:58:22;20.70;99.90
23721;DHT22;42950;52.134;5.578;2023-06-19T03:00:48;20.70;99.90
23721;DHT22;42950;52.134;5.578;2023-06-19T03:03:14;20.60;99.90
23721;DHT22;42950;52.134;5.578;2023-06-19T03:05:39;20.60;99.90
23721;DHT22;42950;52.134;5.578;2023-06-19T03:08:05;20.70;99.90
23721;DHT22;42950;52.134;5.578;2023-06-19T03:10:31;20.70;99.90
23721;DHT22;42950;52.134;5.578;2023-06-19T03:12:56;20.60;99.90
23721;DHT22;42950;52.134;5.578;2023-06-19T03:15:26;20.60;99.90
23721;DHT22;42950;52.134;5.578;2023-06-19T03:17:53;20.70;99.90
23721;DHT22;42950;52.134;5.578;2023-06-19T03:20:20;20.70;99.90
23721;DHT22;42950;52.134;5.578;2023-06-19T03:22:46;20.60;99.90
23721;DHT22;42950;52.134;5.578;2023-06-19T03:25:12;20.60;99.90
23721;DHT22;42950;52.134;5.578;2023-06-19T03:27:38;20.60;99.90
23721;DHT22;42950;52.134;5.578;2023-06-19T03:30:05;20.50;99.90
23721;DHT22;42950;52.134;5.578;2023-06-19T03:32:36;20.60;99.90
23721;DHT22;42950;52.134;5.578;2023-06-19T03:35:02;20.70;99.90
23721;DHT22;42950;52.134;5.578;2023-06-19T03:37:28;20.70;99.90
23721;DHT22;42950;52.134;5.578;2023-06-19T03:39:55;20.70;99.90
23721;DHT22;42950;52.134;5.578;2023-06-19T03:42:22;20.60;99.90
23721;DHT22;42950;52.134;5.578;2023-06-19T03:44:48;20.70;99.90
23721;DHT22;42950;52.134;5.578;2023-06-19T03:47:13;20.60;99.90
23721;DHT22;42950;52.134;5.578;2023-06-19T03:49:39;20.60;99.90
23721;DHT22;42950;52.134;5.578;2023-06-19T03:52:05;20.60;99.90
23721;DHT22;42950;52.134;5.578;2023-06-19T03:54:31;20.60;99.90
23721;DHT22;42950;52.134;5.578;2023-06-19T03:56:56;20.50;99.90
23721;DHT22;42950;52.134;5.578;2023-06-19T03:59:22;20.50;99.90
23721;DHT22;42950;52.134;5.578;2023-06-19T04:01:47;20.50;99.90
23721;DHT22;42950;52.134;5.578;2023-06-19T04:04:13;20.50;99.90
23721;DHT22;42950;52.134;5.578;2023-06-19T04:06:39;20.50;99.90
23721;DHT22;42950;52.134;5.578;2023-06-19T04:09:04;20.50;99.90
23721;DHT22;42950;52.134;5.578;2023-06-19T04:11:30;20.50;99.90
23721;DHT22;42950;52.134;5.578;2023-06-19T04:13:55;20.50;99.90
23721;DHT22;42950;52.134;5.578;2023-06-19T04:16:21;20.50;99.90
23721;DHT22;42950;52.134;5.578;2023-06-19T04:18:47;20.50;99.90
23721;DHT22;42950;52.134;5.578;2023-06-19T04:21:14;20.50;99.90
23721;DHT22;42950;52.134;5.578;2023-06-19T04:23:40;20.50;99.90
23721;DHT22;42950;52.134;5.578;2023-06-19T04:26:06;20.30;99.90
23721;DHT22;42950;52.134;5.578;2023-06-19T04:28:32;20.30;99.90
23721;DHT22;42950;52.134;5.578;2023-06-19T04:30:58;20.30;99.90
23721;DHT22;42950;52.134;5.578;2023-06-19T04:33:28;20.20;99.90
23721;DHT22;42950;52.134;5.578;2023-06-19T04:35:54;20.20;99.90
23721;DHT22;42950;52.134;5.578;2023-06-19T04:38:20;20.20;99.90
23721;DHT22;42950;52.134;5.578;2023-06-19T04:40:49;20.10;99.90
23721;DHT22;42950;52.134;5.578;2023-06-19T04:43:17;20.10;99.90
23721;DHT22;42950;52.134;5.578;2023-06-19T04:45:43;20.10;99.90
23721;DHT22;42950;52.134;5.578;2023-06-19T04:48:10;20.10;99.90
23721;DHT22;42950;52.134;5.578;2023-06-19T04:50:37;20.10;99.90
23721;DHT22;42950;52.134;5.578;2023-06-19T04:53:02;20.00;99.90
23721;DHT22;42950;52.134;5.578;2023-06-19T04:55:28;20.00;99.90
23721;DHT22;42950;52.134;5.578;2023-06-19T04:57:55;19.90;99.90
23721;DHT22;42950;52.134;5.578;2023-06-19T05:00:20;19.90;99.90
23721;DHT22;42950;52.134;5.578;2023-06-19T05:02:47;19.90;99.90
23721;DHT22;42950;52.134;5.578;2023-06-19T05:05:13;19.90;99.90
23721;DHT22;42950;52.134;5.578;2023-06-19T05:07:39;20.00;99.90
23721;DHT22;42950;52.134;5.578;2023-06-19T05:10:06;20.00;99.90
23721;DHT22;42950;52.134;5.578;2023-06-19T05:12:34;20.00;99.90
23721;DHT22;42950;52.134;5.578;2023-06-19T05:15:01;20.00;99.90
23721;DHT22;42950;52.134;5.578;2023-06-19T05:17:26;20.00;99.90
23721;DHT22;42950;52.134;5.578;2023-06-19T05:19:52;20.00;99.90
23721;DHT22;42950;52.134;5.578;2023-06-19T05:22:18;20.10;99.90
23721;DHT22;42950;52.134;5.578;2023-06-19T05:24:44;20.10;99.90
23721;DHT22;42950;52.134;5.578;2023-06-19T05:27:10;20.20;99.90
23721;DHT22;42950;52.134;5.578;2023-06-19T05:29:36;20.10;99.90
23721;DHT22;42950;52.134;5.578;2023-06-19T05:32:02;20.10;99.90
23721;DHT22;42950;52.134;5.578;2023-06-19T05:34:28;20.10;99.90
23721;DHT22;42950;52.134;5.578;2023-06-19T05:36:53;20.10;99.90
23721;DHT22;42950;52.134;5.578;2023-06-19T05:39:19;20.10;99.90
23721;DHT22;42950;52.134;5.578;2023-06-19T05:41:44;20.20;99.90
23721;DHT22;42950;52.134;5.578;2023-06-19T05:44:11;20.10;99.90
23721;DHT22;42950;52.134;5.578;2023-06-19T05:46:41;20.20;99.90
23721;DHT22;42950;52.134;5.578;2023-06-19T05:49:07;20.20;99.90
23721;DHT22;42950;52.134;5.578;2023-06-19T05:51:33;20.20;99.90
23721;DHT22;42950;52.134;5.578;2023-06-19T05:53:59;20.20;99.90
23721;DHT22;42950;52.134;5.578;2023-06-19T05:56:30;20.10;99.90
23721;DHT22;42950;52.134;5.578;2023-06-19T05:58:55;20.10;99.90
23721;DHT22;42950;52.134;5.578;2023-06-19T06:01:21;20.20;99.90
23721;DHT22;42950;52.134;5.578;2023-06-19T06:03:46;20.20;99.90
23721;DHT22;42950;52.134;5.578;2023-06-19T06:06:12;20.20;99.90
23721;DHT22;42950;52.134;5.578;2023-06-19T06:08:38;20.30;99.90
23721;DHT22;42950;52.134;5.578;2023-06-19T06:11:04;20.30;99.90
23721;DHT22;42950;52.134;5.578;2023-06-19T06:13:29;20.40;99.90
23721;DHT22;42950;52.134;5.578;2023-06-19T06:15:55;20.40;99.90
23721;DHT22;42950;52.134;5.578;2023-06-19T06:18:20;20.30;99.90
23721;DHT22;42950;52.134;5.578;2023-06-19T06:20:46;20.30;99.90
23721;DHT22;42950;52.134;5.578;2023-06-19T06:23:11;20.40;99.90
23721;DHT22;42950;52.134;5.578;2023-06-19T06:25:37;20.50;99.90
23721;DHT22;42950;52.134;5.578;2023-06-19T06:28:03;20.50;99.90
23721;DHT22;42950;52.134;5.578;2023-06-19T06:30:29;20.40;99.90
23721;DHT22;42950;52.134;5.578;2023-06-19T06:32:54;20.40;99.90
23721;DHT22;42950;52.134;5.578;2023-06-19T06:35:20;20.20;99.90
23721;DHT22;42950;52.134;5.578;2023-06-19T06:37:46;20.00;99.90
23721;DHT22;42950;52.134;5.578;2023-06-19T06:40:15;19.90;99.90
23721;DHT22;42950;52.134;5.578;2023-06-19T06:42:40;20.00;99.90
23721;DHT22;42950;52.134;5.578;2023-06-19T06:45:06;20.20;99.90
23721;DHT22;42950;52.134;5.578;2023-06-19T06:47:34;20.20;99.90
23721;DHT22;42950;52.134;5.578;2023-06-19T06:50:00;20.20;99.90
23721;DHT22;42950;52.134;5.578;2023-06-19T06:52:25;20.30;99.90
23721;DHT22;42950;52.134;5.578;2023-06-19T06:54:51;20.30;99.90
23721;DHT22;42950;52.134;5.578;2023-06-19T06:57:17;20.40;99.90
23721;DHT22;42950;52.134;5.578;2023-06-19T06:59:42;20.50;99.90
23721;DHT22;42950;52.134;5.578;2023-06-19T07:02:08;20.60;99.90
23721;DHT22;42950;52.134;5.578;2023-06-19T07:04:33;20.70;99.90
23721;DHT22;42950;52.134;5.578;2023-06-19T07:06:59;20.80;99.90
23721;DHT22;42950;52.134;5.578;2023-06-19T07:09:25;20.80;99.90
23721;DHT22;42950;52.134;5.578;2023-06-19T07:11:50;20.90;99.90
23721;DHT22;42950;52.134;5.578;2023-06-19T07:14:16;21.00;99.90
23721;DHT22;42950;52.134;5.578;2023-06-19T07:16:46;20.90;99.90
23721;DHT22;42950;52.134;5.578;2023-06-19T07:19:12;20.90;99.90
23721;DHT22;42950;52.134;5.578;2023-06-19T07:21:39;21.00;99.90
23721;DHT22;42950;52.134;5.578;2023-06-19T07:24:05;21.00;99.90
23721;DHT22;42950;52.134;5.578;2023-06-19T07:26:31;21.00;99.90
23721;DHT22;42950;52.134;5.578;2023-06-19T07:28:57;21.10;99.90
23721;DHT22;42950;52.134;5.578;2023-06-19T07:31:22;21.20;99.90
23721;DHT22;42950;52.134;5.578;2023-06-19T07:33:48;21.20;99.90
23721;DHT22;42950;52.134;5.578;2023-06-19T07:36:14;21.30;99.90
23721;DHT22;42950;52.134;5.578;2023-06-19T07:38:42;21.50;99.90
23721;DHT22;42950;52.134;5.578;2023-06-19T07:41:07;21.40;99.90
23721;DHT22;42950;52.134;5.578;2023-06-19T07:43:35;21.50;99.90
23721;DHT22;42950;52.134;5.578;2023-06-19T07:46:01;21.50;99.90
23721;DHT22;42950;52.134;5.578;2023-06-19T07:48:26;21.40;99.90
23721;DHT22;42950;52.134;5.578;2023-06-19T07:50:53;21.40;99.90
23721;DHT22;42950;52.134;5.578;2023-06-19T07:53:19;21.60;99.90
23721;DHT22;42950;52.134;5.578;2023-06-19T07:55:44;21.60;99.90
23721;DHT22;42950;52.134;5.578;2023-06-19T07:58:10;21.70;99.90
23721;DHT22;42950;52.134;5.578;2023-06-19T08:00:35;21.70;99.90
23721;DHT22;42950;52.134;5.578;2023-06-19T08:03:01;21.70;99.90
23721;DHT22;42950;52.134;5.578;2023-06-19T08:05:27;21.60;99.90
23721;DHT22;42950;52.134;5.578;2023-06-19T08:07:52;21.40;99.90
23721;DHT22;42950;52.134;5.578;2023-06-19T08:10:20;21.30;99.90
23721;DHT22;42950;52.134;5.578;2023-06-19T08:12:47;21.10;99.90
23721;DHT22;42950;52.134;5.578;2023-06-19T08:15:14;21.10;99.90
23721;DHT22;42950;52.134;5.578;2023-06-19T08:17:43;21.00;99.90
23721;DHT22;42950;52.134;5.578;2023-06-19T08:20:09;21.20;99.90
23721;DHT22;42950;52.134;5.578;2023-06-19T08:22:35;21.20;99.90
23721;DHT22;42950;52.134;5.578;2023-06-19T08:25:02;21.30;99.90
23721;DHT22;42950;52.134;5.578;2023-06-19T08:27:27;21.50;99.90
23721;DHT22;42950;52.134;5.578;2023-06-19T08:29:53;21.60;99.90
23721;DHT22;42950;52.134;5.578;2023-06-19T08:32:19;21.70;99.90
23721;DHT22;42950;52.134;5.578;2023-06-19T08:34:44;21.70;99.90
23721;DHT22;42950;52.134;5.578;2023-06-19T08:37:10;21.70;99.90
23721;DHT22;42950;52.134;5.578;2023-06-19T08:39:35;21.70;99.90
23721;DHT22;42950;52.134;5.578;2023-06-19T08:42:05;21.80;99.90
23721;DHT22;42950;52.134;5.578;2023-06-19T08:44:32;21.80;99.90
23721;DHT22;42950;52.134;5.578;2023-06-19T08:46:58;21.70;99.90
23721;DHT22;42950;52.134;5.578;2023-06-19T08:49:23;21.90;99.90
23721;DHT22;42950;52.134;5.578;2023-06-19T08:51:49;22.00;99.90
23721;DHT22;42950;52.134;5.578;2023-06-19T08:54:14;22.00;99.90
23721;DHT22;42950;52.134;5.578;2023-06-19T08:56:40;22.20;99.90
23721;DHT22;42950;52.134;5.578;2023-06-19T08:59:10;22.20;99.90
23721;DHT22;42950;52.134;5.578;2023-06-19T09:01:37;22.10;99.90
23721;DHT22;42950;52.134;5.578;2023-06-19T09:04:13;22.00;99.90
23721;DHT22;42950;52.134;5.578;2023-06-19T09:06:47;22.10;99.90
23721;DHT22;42950;52.134;5.578;2023-06-19T09:09:14;22.10;99.90
23721;DHT22;42950;52.134;5.578;2023-06-19T09:11:40;22.10;99.90
23721;DHT22;42950;52.134;5.578;2023-06-19T09:14:09;22.30;99.90
23721;DHT22;42950;52.134;5.578;2023-06-19T09:16:39;22.50;99.90
23721;DHT22;42950;52.134;5.578;2023-06-19T09:19:06;22.50;99.90
23721;DHT22;42950;52.134;5.578;2023-06-19T09:21:31;22.50;99.90
23721;DHT22;42950;52.134;5.578;2023-06-19T09:24:07;22.70;99.90
23721;DHT22;42950;52.134;5.578;2023-06-19T09:26:33;22.80;99.90
23721;DHT22;42950;52.134;5.578;2023-06-19T09:29:13;22.80;99.90
23721;DHT22;42950;52.134;5.578;2023-06-19T09:31:39;22.50;99.90
23721;DHT22;42950;52.134;5.578;2023-06-19T09:34:07;22.60;99.90
23721;DHT22;42950;52.134;5.578;2023-06-19T09:36:33;22.80;99.90
23721;DHT22;42950;52.134;5.578;2023-06-19T09:39:00;22.90;99.90
23721;DHT22;42950;52.134;5.578;2023-06-19T09:41:29;23.10;99.90
23721;DHT22;42950;52.134;5.578;2023-06-19T09:43:55;23.20;99.90
23721;DHT22;42950;52.134;5.578;2023-06-19T09:46:27;23.40;99.90
23721;DHT22;42950;52.134;5.578;2023-06-19T09:48:55;23.70;99.90
23721;DHT22;42950;52.134;5.578;2023-06-19T09:51:29;23.50;99.90
23721;DHT22;42950;52.134;5.578;2023-06-19T09:53:57;23.50;99.90
23721;DHT22;42950;52.134;5.578;2023-06-19T09:56:24;23.80;99.90
23721;DHT22;42950;52.134;5.578;2023-06-19T09:58:53;23.70;99.90
23721;DHT22;42950;52.134;5.578;2023-06-19T10:01:20;23.70;99.90
23721;DHT22;42950;52.134;5.578;2023-06-19T10:03:46;23.60;99.90
23721;DHT22;42950;52.134;5.578;2023-06-19T10:06:16;24.00;99.90
23721;DHT22;42950;52.134;5.578;2023-06-19T10:08:43;24.00;99.90
23721;DHT22;42950;52.134;5.578;2023-06-19T10:11:10;24.00;99.90
23721;DHT22;42950;52.134;5.578;2023-06-19T10:13:37;23.70;99.90
23721;DHT22;42950;52.134;5.578;2023-06-19T10:16:07;23.70;99.90
23721;DHT22;42950;52.134;5.578;2023-06-19T10:18:45;23.70;99.90
23721;DHT22;42950;52.134;5.578;2023-06-19T10:21:21;23.70;99.90
23721;DHT22;42950;52.134;5.578;2023-06-19T10:23:54;23.50;99.90
23721;DHT22;42950;52.134;5.578;2023-06-19T10:26:29;23.90;99.90
23721;DHT22;42950;52.134;5.578;2023-06-19T10:28:56;24.00;99.90
23721;DHT22;42950;52.134;5.578;2023-06-19T10:31:21;24.20;99.90
23721;DHT22;42950;52.134;5.578;2023-06-19T10:33:47;24.20;99.90
23721;DHT22;42950;52.134;5.578;2023-06-19T10:36:20;24.30;99.90
23721;DHT22;42950;52.134;5.578;2023-06-19T10:38:47;24.10;99.90
23721;DHT22;42950;52.134;5.578;2023-06-19T10:41:21;24.00;99.90
23721;DHT22;42950;52.134;5.578;2023-06-19T10:43:56;24.30;99.90
23721;DHT22;42950;52.134;5.578;2023-06-19T10:46:23;24.70;99.90
23721;DHT22;42950;52.134;5.578;2023-06-19T10:48:50;25.00;99.90
23721;DHT22;42950;52.134;5.578;2023-06-19T10:51:20;25.10;99.90
23721;DHT22;42950;52.134;5.578;2023-06-19T10:53:46;25.00;99.90
23721;DHT22;42950;52.134;5.578;2023-06-19T10:56:12;25.30;99.90
23721;DHT22;42950;52.134;5.578;2023-06-19T10:58:37;25.90;99.90
23721;DHT22;42950;52.134;5.578;2023-06-19T11:01:03;26.20;99.90
23721;DHT22;42950;52.134;5.578;2023-06-19T11:03:29;26.20;99.90
23721;DHT22;42950;52.134;5.578;2023-06-19T11:05:54;26.00;99.90
23721;DHT22;42950;52.134;5.578;2023-06-19T11:08:21;26.10;99.90
23721;DHT22;42950;52.134;5.578;2023-06-19T11:10:48;25.90;99.90
23721;DHT22;42950;52.134;5.578;2023-06-19T11:13:15;25.90;99.90
23721;DHT22;42950;52.134;5.578;2023-06-19T11:15:41;25.70;99.90
23721;DHT22;42950;52.134;5.578;2023-06-19T11:18:07;25.60;99.90
23721;DHT22;42950;52.134;5.578;2023-06-19T11:20:46;25.60;99.90
23721;DHT22;42950;52.134;5.578;2023-06-19T11:23:13;25.90;99.90
23721;DHT22;42950;52.134;5.578;2023-06-19T11:25:40;26.30;99.90
23721;DHT22;42950;52.134;5.578;2023-06-19T11:28:16;26.60;99.90
23721;DHT22;42950;52.134;5.578;2023-06-19T11:30:57;26.30;99.90
23721;DHT22;42950;52.134;5.578;2023-06-19T11:33:23;26.20;99.90
23721;DHT22;42950;52.134;5.578;2023-06-19T11:35:52;26.00;99.90
23721;DHT22;42950;52.134;5.578;2023-06-19T11:38:19;25.90;99.90
23721;DHT22;42950;52.134;5.578;2023-06-19T11:40:45;25.80;99.90
23721;DHT22;42950;52.134;5.578;2023-06-19T11:43:23;25.90;99.90
23721;DHT22;42950;52.134;5.578;2023-06-19T11:45:48;26.00;99.90
23721;DHT22;42950;52.134;5.578;2023-06-19T11:48:22;26.20;99.90
23721;DHT22;42950;52.134;5.578;2023-06-19T11:50:47;26.50;99.90
23721;DHT22;42950;52.134;5.578;2023-06-19T11:53:13;26.40;99.90
23721;DHT22;42950;52.134;5.578;2023-06-19T11:55:38;26.20;99.90
23721;DHT22;42950;52.134;5.578;2023-06-19T11:58:04;26.00;99.90
23721;DHT22;42950;52.134;5.578;2023-06-19T12:00:29;26.00;99.90
23721;DHT22;42950;52.134;5.578;2023-06-19T12:02:55;26.20;99.90
23721;DHT22;42950;52.134;5.578;2023-06-19T12:05:22;26.30;99.90
23721;DHT22;42950;52.134;5.578;2023-06-19T12:07:48;26.90;99.90
23721;DHT22;42950;52.134;5.578;2023-06-19T12:10:13;27.10;99.90
23721;DHT22;42950;52.134;5.578;2023-06-19T12:12:39;27.10;99.90
23721;DHT22;42950;52.134;5.578;2023-06-19T12:15:05;27.40;99.90
23721;DHT22;42950;52.134;5.578;2023-06-19T12:17:32;27.60;99.90
23721;DHT22;42950;52.134;5.578;2023-06-19T12:19:58;27.60;99.90
23721;DHT22;42950;52.134;5.578;2023-06-19T12:22:24;27.40;99.90
23721;DHT22;42950;52.134;5.578;2023-06-19T12:24:49;27.20;99.90
23721;DHT22;42950;52.134;5.578;2023-06-19T12:27:15;27.30;99.90
23721;DHT22;42950;52.134;5.578;2023-06-19T12:29:41;27.50;99.90
23721;DHT22;42950;52.134;5.578;2023-06-19T12:32:07;27.60;99.90
23721;DHT22;42950;52.134;5.578;2023-06-19T12:34:32;27.90;99.90
23721;DHT22;42950;52.134;5.578;2023-06-19T12:36:58;28.00;99.90
23721;DHT22;42950;52.134;5.578;2023-06-19T12:39:23;27.90;99.90
23721;DHT22;42950;52.134;5.578;2023-06-19T12:41:50;28.00;99.90
23721;DHT22;42950;52.134;5.578;2023-06-19T12:44:16;28.30;99.90
23721;DHT22;42950;52.134;5.578;2023-06-19T12:46:42;28.30;99.90
23721;DHT22;42950;52.134;5.578;2023-06-19T12:49:07;28.20;99.90
23721;DHT22;42950;52.134;5.578;2023-06-19T12:51:34;28.00;99.90
23721;DHT22;42950;52.134;5.578;2023-06-19T12:53:59;27.70;99.90
23721;DHT22;42950;52.134;5.578;2023-06-19T12:56:25;27.40;99.90
23721;DHT22;42950;52.134;5.578;2023-06-19T12:58:51;27.50;99.90
23721;DHT22;42950;52.134;5.578;2023-06-19T13:01:16;27.70;99.90
23721;DHT22;42950;52.134;5.578;2023-06-19T13:03:42;27.90;99.90
23721;DHT22;42950;52.134;5.578;2023-06-19T13:06:08;28.00;99.90
23721;DHT22;42950;52.134;5.578;2023-06-19T13:08:33;27.90;99.90
23721;DHT22;42950;52.134;5.578;2023-06-19T13:10:59;27.80;99.90
23721;DHT22;42950;52.134;5.578;2023-06-19T13:13:24;27.80;99.90
23721;DHT22;42950;52.134;5.578;2023-06-19T13:15:50;27.70;99.90
23721;DHT22;42950;52.134;5.578;2023-06-19T13:18:15;27.60;99.90
23721;DHT22;42950;52.134;5.578;2023-06-19T13:20:41;27.90;99.90
23721;DHT22;42950;52.134;5.578;2023-06-19T13:23:06;28.10;99.90
23721;DHT22;42950;52.134;5.578;2023-06-19T13:25:32;28.40;99.90
23721;DHT22;42950;52.134;5.578;2023-06-19T13:27:58;28.40;99.90
23721;DHT22;42950;52.134;5.578;2023-06-19T13:30:24;28.20;99.90
23721;DHT22;42950;52.134;5.578;2023-06-19T13:32:50;28.40;99.90
23721;DHT22;42950;52.134;5.578;2023-06-19T13:35:15;28.00;99.90
23721;DHT22;42950;52.134;5.578;2023-06-19T13:37:41;27.50;99.90
23721;DHT22;42950;52.134;5.578;2023-06-19T13:40:07;27.80;99.90
23721;DHT22;42950;52.134;5.578;2023-06-19T13:42:33;28.00;99.90
23721;DHT22;42950;52.134;5.578;2023-06-19T13:45:01;28.00;99.90
23721;DHT22;42950;52.134;5.578;2023-06-19T13:47:27;28.20;99.90
23721;DHT22;42950;52.134;5.578;2023-06-19T13:49:53;28.30;99.90
23721;DHT22;42950;52.134;5.578;2023-06-19T13:52:18;28.30;99.90
23721;DHT22;42950;52.134;5.578;2023-06-19T13:54:44;28.60;99.90
23721;DHT22;42950;52.134;5.578;2023-06-19T13:57:09;28.70;99.90
23721;DHT22;42950;52.134;5.578;2023-06-19T13:59:35;28.70;99.90
23721;DHT22;42950;52.134;5.578;2023-06-19T14:02:01;28.70;99.90
23721;DHT22;42950;52.134;5.578;2023-06-19T14:04:27;28.50;99.90
23721;DHT22;42950;52.134;5.578;2023-06-19T14:06:52;28.50;99.90
23721;DHT22;42950;52.134;5.578;2023-06-19T14:09:20;28.60;99.90
23721;DHT22;42950;52.134;5.578;2023-06-19T14:11:46;28.70;99.90
23721;DHT22;42950;52.134;5.578;2023-06-19T14:14:11;28.80;99.90
23721;DHT22;42950;52.134;5.578;2023-06-19T14:16:37;29.00;99.90
23721;DHT22;42950;52.134;5.578;2023-06-19T14:19:02;29.30;99.90
23721;DHT22;42950;52.134;5.578;2023-06-19T14:21:28;29.40;99.90
23721;DHT22;42950;52.134;5.578;2023-06-19T14:23:54;29.40;99.90
23721;DHT22;42950;52.134;5.578;2023-06-19T14:26:20;29.50;99.90
23721;DHT22;42950;52.134;5.578;2023-06-19T14:28:46;29.60;99.90
23721;DHT22;42950;52.134;5.578;2023-06-19T14:31:12;29.60;99.90
23721;DHT22;42950;52.134;5.578;2023-06-19T14:33:37;29.80;99.90
23721;DHT22;42950;52.134;5.578;2023-06-19T14:36:03;29.90;99.90
23721;DHT22;42950;52.134;5.578;2023-06-19T14:38:29;29.40;99.90
23721;DHT22;42950;52.134;5.578;2023-06-19T14:40:59;29.40;99.90
23721;DHT22;42950;52.134;5.578;2023-06-19T14:43:26;29.40;99.90
23721;DHT22;42950;52.134;5.578;2023-06-19T14:45:51;29.40;99.90
23721;DHT22;42950;52.134;5.578;2023-06-19T14:48:17;29.80;99.90
23721;DHT22;42950;52.134;5.578;2023-06-19T14:50:43;29.80;99.90
23721;DHT22;42950;52.134;5.578;2023-06-19T14:53:08;29.70;99.90
23721;DHT22;42950;52.134;5.578;2023-06-19T14:55:34;30.00;99.90
23721;DHT22;42950;52.134;5.578;2023-06-19T14:58:00;30.20;99.90
23721;DHT22;42950;52.134;5.578;2023-06-19T15:00:25;30.50;99.90
23721;DHT22;42950;52.134;5.578;2023-06-19T15:02:51;30.40;99.90
23721;DHT22;42950;52.134;5.578;2023-06-19T15:05:16;30.40;99.90
23721;DHT22;42950;52.134;5.578;2023-06-19T15:07:42;30.00;99.90
23721;DHT22;42950;52.134;5.578;2023-06-19T15:10:08;29.90;99.90
23721;DHT22;42950;52.134;5.578;2023-06-19T15:12:33;29.90;99.90
23721;DHT22;42950;52.134;5.578;2023-06-19T15:15:00;30.00;99.90
23721;DHT22;42950;52.134;5.578;2023-06-19T15:17:26;29.90;99.90
23721;DHT22;42950;52.134;5.578;2023-06-19T15:19:52;30.00;99.90
23721;DHT22;42950;52.134;5.578;2023-06-19T15:22:17;30.50;99.90
23721;DHT22;42950;52.134;5.578;2023-06-19T15:24:43;30.90;99.90
23721;DHT22;42950;52.134;5.578;2023-06-19T15:27:08;30.90;99.90
23721;DHT22;42950;52.134;5.578;2023-06-19T15:29:34;30.50;99.90
23721;DHT22;42950;52.134;5.578;2023-06-19T15:32:01;30.20;99.90